Impacts TAF Board INFO
IDs:

KCVG - Cincinnati Intl, KY, US

Issued at 1136 UTC 10 Dec 2016
Updated at 1440 UTC 10 Dec 2016
Potential Impact None Slight Moderate High
Time1352Z 10/15Z 10/16Z 10/17Z 10/18Z 10/19Z 10/20Z 10/21Z 10/22Z 10/23Z 11/00Z 11/01Z 11/02Z 11/03Z
Type OBS PRVL PRVL PRVL PRVL PRVL PRVL PRVL PRVL PRVL PRVL PRVL PRVL PRVL
VIS 6 >6 >6 >6 >6 >6 >6 >6 >6 >6 >6 >6 >6 >6
CIG 110 100 100 100 100 100 100 100 100 100 80 80 80 80
Cover BKN BKN BKN BKN BKN BKN BKN BKN BKN BKN BKN BKN BKN BKN
FltCat VFR VFR VFR VFR VFR VFR VFR VFR VFR VFR VFR VFR VFR VFR
WX BR -- -- -- -- -- -- -- -- -- -- -- -- --
WDir 230 250 250 250 250 250 250 250 250 250 130 130 130 130
WSpd 4 7 7 7 7 7 7 7 7 7 4 4 4 4
WGst -- -- -- -- -- -- -- -- -- -- -- -- -- --

Raw TAF
KCVG 101136Z 1012/1118 25003KT P6SM SCT030 OVC110
  FM101300 25007KT P6SM BKN100
  FM110000 13004KT P6SM BKN080
  FM111200 15009KT P6SM BKN050


Raw METAR
KCVG 101352Z 23004KT 6SM BR SCT090 BKN110 M06/M08 A3055 RMK AO2 SLP357 T10611083
KCVG 101252Z 22003KT 8SM FEW090 OVC110 M07/M08 A3055 RMK AO2 SLP357 T10671083
KCVG 101152Z 25003KT 9SM OVC110 M07/M09 A3054 RMK AO2 SLP353 T10671089 11061 21078 53001

METAR Board
Radar Display
Forecast Discussion